Overview Statistics Trail Chart Weather Telemetry Raw packets
 

This is the latest recevied weather packets stored in our database for station/object WX4SGA. If no packets are shown the sender has not sent any weather packets the latest 10 day(s).

<< 21 22 23 24 25 26 27 >>
Time Temp. Humidity Pressure Rain* Wind** Luminosity Snow
1788470767 30° C 76% 1014.6 hPa 0 mm - 77 W/m² -
1788470462 30.56° C 74% 1014.6 hPa 0 mm - 87 W/m² -
1788470157 31.11° C 74% 1014.6 hPa 0 mm - 80 W/m² -
1788469853 31.11° C 73% 1014.6 hPa 0 mm - 76 W/m² -
1788469548 32.22° C 68% 1014.6 hPa 0 mm - 50 W/m² -
1788469244 33.33° C 64% 1014.6 hPa 0 mm - 117 W/m² -
1788468943 33.33° C 65% 1014.6 hPa 0 mm - 225 W/m² -
1788468653 32.78° C 64% 1014.6 hPa 0 mm - 222 W/m² -
1788468334 32.22° C 64% 1014.9 hPa 0 mm - 321 W/m² -
1788468029 31.67° C 68% 1014.6 hPa 0 mm - 210 W/m² -
1788467724 32.22° C 68% 1014.6 hPa 0 mm - 82 W/m² -
1788467424 32.78° C 64% 1014.6 hPa 0 mm - 85 W/m² -
1788467120 32.78° C 65% 1014.6 hPa 0 mm - 601 W/m² -
1788466815 32.78° C 67% 1014.6 hPa 0 mm - 622 W/m² -
1788466509 32.78° C 66% 1014.9 hPa 0 mm - 539 W/m² -
1788466208 32.78° C 65% 1014.9 hPa 0 mm - 525 W/m² -
1788465903 32.22° C 69% 1014.9 hPa 0 mm - 626 W/m² -
1788465618 32.22° C 68% 1014.9 hPa 0 mm - 513 W/m² -
1788465295 31.67° C 69% 1015.2 hPa 0 mm - 205 W/m² -
1788464989 32.78° C 69% 1015.2 hPa 0 mm - 172 W/m² -
1788464685 32.78° C 66% 1015.2 hPa 0 mm - 499 W/m² -
1788464380 32.78° C 66% 1015.2 hPa 0 mm - 942 W/m² -
1788464076 32.22° C 68% 1015.2 hPa 0 mm - 548 W/m² -
1788463771 31.67° C 70% 1015.2 hPa 0 mm - 288 W/m² -
1788463468 31.11° C 70% 1015.2 hPa 0 mm - 210 W/m² -

* Rain latest hour (hover to see other rain measurements)
** Current wind speed in m/s (hover to see current wind gust speed)